createdAt,value
2017-11-30T00:00:00.109Z,92.04
2017-11-30T00:00:26.221Z,92.14
2017-11-30T00:00:52.345Z,91.95
2017-11-30T00:01:18.466Z,91.85
2017-11-30T00:01:44.585Z,91.85
2017-11-30T00:02:10.711Z,92.09
2017-11-30T00:02:36.822Z,92.19
2017-11-30T00:03:02.946Z,92.23
2017-11-30T00:03:29.061Z,92.42
2017-11-30T00:03:55.185Z,91.85
2017-11-30T00:04:21.310Z,92.23
2017-11-30T00:04:47.419Z,92.14
2017-11-30T00:05:13.542Z,92
2017-11-30T00:05:39.658Z,92.23
2017-11-30T00:06:05.779Z,92.04
2017-11-30T00:06:31.904Z,92.04
2017-11-30T00:06:58.017Z,91.76
2017-11-30T00:07:24.143Z,91.85
2017-11-30T00:07:50.257Z,91.95
2017-11-30T00:08:16.376Z,92.23
2017-11-30T00:08:42.499Z,92.04
2017-11-30T00:09:08.611Z,91.85
2017-11-30T00:09:34.737Z,92.38
2017-11-30T00:10:00.861Z,92.38
2017-11-30T00:10:26.977Z,92.76
2017-11-30T00:10:53.094Z,92.99
2017-11-30T00:11:19.220Z,93.18
2017-11-30T00:11:45.331Z,92.42
2017-11-30T00:12:11.458Z,92.52
2017-11-30T00:12:37.580Z,92.33
2017-11-30T00:13:03.711Z,92.14
2017-11-30T00:13:29.838Z,91.85
2017-11-30T00:13:55.958Z,91.38
2017-11-30T00:14:22.080Z,91.66
2017-11-30T00:14:48.193Z,91.38
2017-11-30T00:15:14.317Z,91.28
2017-11-30T00:15:40.430Z,91.47
2017-11-30T00:16:06.547Z,91.19
2017-11-30T00:16:32.670Z,91.38
2017-11-30T00:16:58.796Z,91.66
2017-11-30T00:17:24.915Z,91.57
2017-11-30T00:17:51.029Z,91.47
2017-11-30T00:18:17.161Z,91.57
2017-11-30T00:18:43.275Z,91.66
2017-11-30T00:19:09.383Z,90.91
2017-11-30T00:19:35.502Z,91.09
2017-11-30T00:20:01.630Z,91.09
2017-11-30T00:20:27.753Z,91.19
2017-11-30T00:20:53.897Z,91
2017-11-30T00:21:20.007Z,91
2017-11-30T00:21:46.131Z,91
2017-11-30T00:22:12.254Z,90.91
2017-11-30T00:22:38.369Z,91.09
2017-11-30T00:23:04.493Z,90.91
2017-11-30T00:23:30.608Z,90.72
2017-11-30T00:23:56.756Z,90.91
2017-11-30T00:24:22.867Z,90.72
2017-11-30T00:24:48.980Z,91.19
2017-11-30T00:25:15.106Z,91.19
2017-11-30T00:25:41.243Z,91
2017-11-30T00:26:07.372Z,91
2017-11-30T00:26:33.511Z,91.09
2017-11-30T00:26:59.650Z,90.62
2017-11-30T00:27:25.767Z,90.91
2017-11-30T00:27:51.887Z,90.15
2017-11-30T00:28:18.005Z,90.43
2017-11-30T00:28:44.133Z,90.43
2017-11-30T00:29:10.246Z,90.34
2017-11-30T00:29:36.371Z,90.53
2017-11-30T00:30:02.488Z,90.15
2017-11-30T00:30:28.609Z,90.81
2017-11-30T00:30:54.728Z,90.72
2017-11-30T00:31:20.852Z,90.72
2017-11-30T00:31:46.973Z,90.53
2017-11-30T00:32:13.094Z,90.81
2017-11-30T00:32:39.209Z,90.72
2017-11-30T00:33:05.334Z,90.91
2017-11-30T00:33:31.456Z,91
2017-11-30T00:33:57.596Z,91.09
2017-11-30T00:34:23.715Z,90.81
2017-11-30T00:34:49.830Z,91
2017-11-30T00:35:15.947Z,90.72
2017-11-30T00:35:42.070Z,90.81
2017-11-30T00:36:08.183Z,90.72
2017-11-30T00:36:34.307Z,90.91
2017-11-30T00:37:19.634Z,90.72
2017-11-30T00:37:49.789Z,90.91
2017-11-30T00:38:15.915Z,90.72
2017-11-30T00:38:42.026Z,90.91
2017-11-30T00:39:08.141Z,90.53
2017-11-30T00:39:34.264Z,90.62
2017-11-30T00:40:00.378Z,91
2017-11-30T00:40:26.510Z,90.72
2017-11-30T00:40:52.631Z,91
2017-11-30T00:41:18.741Z,91
2017-11-30T00:41:44.867Z,91
2017-11-30T00:42:10.986Z,91
2017-11-30T00:42:37.112Z,91
2017-11-30T00:43:03.232Z,90.53
2017-11-30T00:43:29.361Z,90.91
2017-11-30T00:43:55.485Z,91.09
2017-11-30T00:44:21.628Z,90.91
2017-11-30T00:44:47.742Z,91.57
2017-11-30T00:45:13.862Z,91.47
2017-11-30T00:45:39.983Z,91.47
2017-11-30T00:46:06.111Z,91.57
2017-11-30T00:46:32.224Z,91.47
2017-11-30T00:46:58.337Z,91.57
2017-11-30T00:47:24.465Z,91.57
2017-11-30T00:47:50.585Z,91.28
2017-11-30T00:48:16.713Z,91.47
2017-11-30T00:48:42.845Z,91.38
2017-11-30T00:49:08.963Z,91.66
2017-11-30T00:49:35.083Z,91.66
2017-11-30T00:50:01.206Z,91.09
2017-11-30T00:50:27.320Z,91.09
2017-11-30T00:50:53.445Z,91.66
2017-11-30T00:51:19.566Z,91.66
2017-11-30T00:51:45.702Z,91.47
2017-11-30T00:52:11.826Z,91.28
2017-11-30T00:52:37.944Z,91.76
2017-11-30T00:53:04.064Z,91.76
2017-11-30T00:53:30.182Z,91.66
2017-11-30T00:53:56.304Z,91.57
2017-11-30T00:54:22.418Z,91.85
2017-11-30T00:54:48.555Z,91.85
2017-11-30T00:55:14.679Z,92.14
2017-11-30T00:55:40.796Z,92.61
2017-11-30T00:56:06.920Z,92.33
2017-11-30T00:56:33.039Z,92.23
2017-11-30T00:56:59.154Z,92.14
2017-11-30T00:57:25.275Z,92.04
2017-11-30T00:57:51.399Z,91.95
2017-11-30T00:58:17.521Z,91.95
2017-11-30T00:58:43.634Z,92
2017-11-30T00:59:09.757Z,92.23
2017-11-30T00:59:35.882Z,92.19
2017-11-30T01:00:01.998Z,92
2017-11-30T01:00:28.110Z,92.42
2017-11-30T01:00:54.234Z,92.19
2017-11-30T01:01:20.351Z,92.66
2017-11-30T01:01:46.469Z,92.85
2017-11-30T01:02:12.587Z,92.57
2017-11-30T01:02:38.712Z,92.57
2017-11-30T01:03:04.826Z,93.04
2017-11-30T01:03:30.946Z,93.37
2017-11-30T01:03:57.068Z,92.33
2017-11-30T01:04:23.183Z,92.76
2017-11-30T01:04:49.309Z,92.38
2017-11-30T01:05:15.424Z,92.38
2017-11-30T01:05:41.546Z,92.42
2017-11-30T01:06:07.668Z,92.71
2017-11-30T01:06:33.784Z,92.38
2017-11-30T01:06:59.901Z,92.76
2017-11-30T01:07:26.034Z,92
2017-11-30T01:07:52.143Z,92.47
2017-11-30T01:08:18.264Z,92.42
2017-11-30T01:08:44.387Z,92.23
2017-11-30T01:09:10.506Z,92.28
2017-11-30T01:09:36.626Z,92.33
2017-11-30T01:10:02.742Z,92.76
2017-11-30T01:10:28.853Z,92.47
2017-11-30T01:10:54.975Z,92.52
2017-11-30T01:11:21.093Z,92.47
2017-11-30T01:11:47.216Z,92.42
2017-11-30T01:12:13.362Z,92.33
2017-11-30T01:12:39.499Z,92.71
2017-11-30T01:13:05.614Z,91.95
2017-11-30T01:13:31.734Z,92.04
2017-11-30T01:13:57.851Z,92.14
2017-11-30T01:14:23.980Z,92.04
2017-11-30T01:14:50.138Z,92.04
2017-11-30T01:15:16.221Z,91.85
2017-11-30T01:15:42.377Z,92.23
2017-11-30T01:16:08.496Z,91.66
2017-11-30T01:16:34.612Z,91.38
2017-11-30T01:17:00.741Z,91.57
2017-11-30T01:17:26.858Z,91.19
2017-11-30T01:17:52.974Z,91.09
2017-11-30T01:18:19.093Z,91.09
2017-11-30T01:18:45.213Z,91.09
2017-11-30T01:19:11.330Z,91.09
2017-11-30T01:19:37.485Z,91.57
2017-11-30T01:20:03.597Z,91.38
2017-11-30T01:20:29.717Z,91.28
2017-11-30T01:20:55.853Z,91.66
2017-11-30T01:21:21.973Z,91.57
2017-11-30T01:21:48.091Z,91.57
2017-11-30T01:22:14.204Z,91.66
2017-11-30T01:22:40.334Z,92.04
2017-11-30T01:23:06.447Z,91.95
2017-11-30T01:23:32.558Z,92.04
2017-11-30T01:23:58.680Z,92.04
2017-11-30T01:24:24.800Z,92.04
2017-11-30T01:24:50.925Z,91.57
2017-11-30T01:25:17.083Z,91.57
2017-11-30T01:25:43.185Z,91.57
2017-11-30T01:26:09.300Z,91.28
2017-11-30T01:26:35.421Z,91.28
2017-11-30T01:27:01.552Z,91.47
2017-11-30T01:27:27.665Z,91.66
2017-11-30T01:27:53.786Z,91.66
2017-11-30T01:28:19.910Z,91.57
2017-11-30T01:28:46.035Z,91.85
2017-11-30T01:29:12.147Z,91.66
2017-11-30T01:29:38.270Z,92.04
2017-11-30T01:30:04.390Z,91.95
2017-11-30T01:30:30.504Z,91.57
2017-11-30T01:30:56.629Z,91.66
2017-11-30T01:31:22.757Z,91.28
2017-11-30T01:31:48.873Z,91.47
2017-11-30T01:32:14.988Z,91.47
2017-11-30T01:32:41.112Z,91.85
2017-11-30T01:33:07.227Z,91.85
2017-11-30T01:33:33.357Z,92.52
2017-11-30T01:33:59.474Z,92.33
2017-11-30T01:34:25.597Z,92.47
2017-11-30T01:34:51.715Z,92.99
2017-11-30T01:35:17.827Z,93.37
2017-11-30T01:35:43.949Z,92.76
2017-11-30T01:36:10.062Z,92.61
2017-11-30T01:36:36.188Z,93.13
2017-11-30T01:37:02.303Z,92.42
2017-11-30T01:37:28.426Z,92.71
2017-11-30T01:37:54.549Z,92.38
2017-11-30T01:38:20.661Z,92.33
2017-11-30T01:38:46.785Z,92.76
2017-11-30T01:39:12.913Z,92.57
2017-11-30T01:39:39.065Z,92.28
2017-11-30T01:40:05.151Z,92.66
2017-11-30T01:40:31.269Z,92.85
2017-11-30T01:40:57.392Z,93.23
2017-11-30T01:41:23.504Z,93.13
2017-11-30T01:41:49.623Z,93.42
2017-11-30T01:42:15.767Z,93.42
2017-11-30T01:42:41.879Z,93.42
2017-11-30T01:43:08.005Z,93.42
2017-11-30T01:43:34.129Z,92.94
2017-11-30T01:44:00.240Z,93.13
2017-11-30T01:44:26.365Z,93.04
2017-11-30T01:44:52.481Z,93.13
2017-11-30T01:45:18.627Z,92.85
2017-11-30T01:45:44.744Z,92.99
2017-11-30T01:46:10.861Z,92.61
2017-11-30T01:46:36.988Z,92.38
2017-11-30T01:47:03.098Z,92.71
2017-11-30T01:47:29.222Z,92.94
2017-11-30T01:47:55.359Z,92.99
2017-11-30T01:48:21.484Z,92.61
2017-11-30T01:48:47.608Z,92.61
2017-11-30T01:49:13.721Z,93.18
2017-11-30T01:49:39.841Z,92.42
2017-11-30T01:50:05.962Z,92.33
2017-11-30T01:50:32.082Z,92.66
2017-11-30T01:50:58.197Z,92.61
2017-11-30T01:51:24.314Z,92.33
2017-11-30T01:51:50.439Z,92.23
2017-11-30T01:52:16.553Z,92.28
2017-11-30T01:52:42.677Z,92.47
2017-11-30T01:53:08.800Z,92.76
2017-11-30T01:53:34.913Z,92.76
2017-11-30T01:54:01.038Z,92.23
2017-11-30T01:54:27.152Z,93.04
2017-11-30T01:54:53.270Z,92.85
2017-11-30T01:55:19.393Z,92.66
2017-11-30T01:55:45.532Z,93.13
2017-11-30T01:56:11.655Z,92.94
2017-11-30T01:56:37.776Z,92.66
2017-11-30T01:57:03.894Z,93.04
2017-11-30T01:57:30.020Z,92
2017-11-30T01:57:56.138Z,92.94
2017-11-30T01:58:22.258Z,92.85
2017-11-30T01:58:48.380Z,92.85
2017-11-30T01:59:14.504Z,92.99
2017-11-30T01:59:40.613Z,92.9
2017-11-30T02:00:06.731Z,93.04
2017-11-30T02:00:32.856Z,92.61
2017-11-30T02:00:58.974Z,92.57
2017-11-30T02:01:25.096Z,93.04
2017-11-30T02:01:51.209Z,92.19
2017-11-30T02:02:17.326Z,92.42
2017-11-30T02:02:43.459Z,92.52
2017-11-30T02:03:09.566Z,92.71
2017-11-30T02:03:35.690Z,92.52
2017-11-30T02:04:01.813Z,92.52
2017-11-30T02:04:27.933Z,92.71
2017-11-30T02:04:54.048Z,93.08
2017-11-30T02:05:20.170Z,92.9
2017-11-30T02:05:46.307Z,92.42
2017-11-30T02:06:12.453Z,92.23
2017-11-30T02:06:38.566Z,92.42
2017-11-30T02:07:04.690Z,91.85
2017-11-30T02:07:30.804Z,92.14
2017-11-30T02:07:56.930Z,92.23
2017-11-30T02:08:23.047Z,92.04
2017-11-30T02:08:49.162Z,92.04
2017-11-30T02:09:15.325Z,91.85
2017-11-30T02:09:41.439Z,91.57
2017-11-30T02:10:07.563Z,92.23
2017-11-30T02:10:33.678Z,91.95
2017-11-30T02:10:59.803Z,91.95
2017-11-30T02:11:25.917Z,91.95
2017-11-30T02:11:52.061Z,91.95
2017-11-30T02:12:18.174Z,92.23
2017-11-30T02:12:44.293Z,92.52
2017-11-30T02:13:10.416Z,92.42
2017-11-30T02:13:36.535Z,92.76
2017-11-30T02:14:02.656Z,92.76
2017-11-30T02:14:28.769Z,92.76
2017-11-30T02:14:54.893Z,92.57
2017-11-30T02:15:21.010Z,92.76
2017-11-30T02:15:47.128Z,92.94
2017-11-30T02:16:13.251Z,92.94
2017-11-30T02:16:39.371Z,93.18
2017-11-30T02:17:05.485Z,92.8
2017-11-30T02:17:31.601Z,93.08
2017-11-30T02:17:57.728Z,92.61
2017-11-30T02:18:23.843Z,92.8
2017-11-30T02:18:49.981Z,92.61
2017-11-30T02:19:16.100Z,92.42
2017-11-30T02:19:42.248Z,92.04
2017-11-30T02:20:08.350Z,92.42
2017-11-30T02:20:34.475Z,92.42
2017-11-30T02:21:00.597Z,91.76
2017-11-30T02:21:26.732Z,91.66
2017-11-30T02:21:52.859Z,91.85
2017-11-30T02:22:18.970Z,91.76
2017-11-30T02:22:45.093Z,91.47
2017-11-30T02:23:11.215Z,91.66
2017-11-30T02:23:37.331Z,91.47
2017-11-30T02:24:03.455Z,91.47
2017-11-30T02:24:29.593Z,91.28
2017-11-30T02:24:55.708Z,91.66
2017-11-30T02:25:21.825Z,91.66
2017-11-30T02:25:47.953Z,91.66
2017-11-30T02:26:14.073Z,91.95
2017-11-30T02:26:40.190Z,92.23
2017-11-30T02:27:06.307Z,91.85
2017-11-30T02:27:32.436Z,91.85
2017-11-30T02:27:58.547Z,92.04
2017-11-30T02:28:24.670Z,91.95
2017-11-30T02:28:50.796Z,91.85
2017-11-30T02:29:16.921Z,91.95
2017-11-30T02:29:43.041Z,92.04
2017-11-30T02:30:09.152Z,91.76
2017-11-30T02:30:35.268Z,92.23
2017-11-30T02:31:01.414Z,92.04
2017-11-30T02:31:27.532Z,91.95
2017-11-30T02:31:53.656Z,91.95
2017-11-30T02:32:19.775Z,92.14
2017-11-30T02:32:45.892Z,92.04
2017-11-30T02:33:12.009Z,92.23
2017-11-30T02:33:38.133Z,92.42
2017-11-30T02:34:04.253Z,92.52
2017-11-30T02:34:30.369Z,92.14
2017-11-30T02:34:56.488Z,92.14
2017-11-30T02:35:22.621Z,92.04
2017-11-30T02:35:48.744Z,92.23
2017-11-30T02:36:14.883Z,91.95
2017-11-30T02:36:40.997Z,91.85
2017-11-30T02:37:07.123Z,91.85
2017-11-30T02:37:33.246Z,91.66
2017-11-30T02:37:59.357Z,91.76
2017-11-30T02:38:25.485Z,92
2017-11-30T02:38:51.600Z,92.09
2017-11-30T02:39:17.747Z,92.19
2017-11-30T02:39:43.846Z,92.61
2017-11-30T02:40:09.955Z,92.14
2017-11-30T02:40:36.075Z,92.23
2017-11-30T02:41:02.211Z,92.23
2017-11-30T02:41:28.343Z,92.23
2017-11-30T02:41:54.456Z,92.23
2017-11-30T02:42:20.599Z,91.95
2017-11-30T02:42:46.718Z,91.95
2017-11-30T02:43:12.864Z,91.85
2017-11-30T02:43:38.985Z,91.85
2017-11-30T02:44:05.097Z,91.66
2017-11-30T02:44:31.216Z,91.85
2017-11-30T02:44:57.383Z,91.66
2017-11-30T02:45:23.499Z,92.23
2017-11-30T02:45:49.613Z,92.23
2017-11-30T02:46:15.737Z,91.85
2017-11-30T02:46:41.851Z,91.95
2017-11-30T02:47:07.969Z,91.66
2017-11-30T02:47:34.093Z,92.23
2017-11-30T02:48:00.206Z,92.09
2017-11-30T02:48:26.329Z,92.14
2017-11-30T02:48:52.449Z,92.42
2017-11-30T02:49:18.588Z,92.23
2017-11-30T02:49:44.703Z,92.52
2017-11-30T02:50:10.838Z,92.42
2017-11-30T02:50:36.951Z,92.52
2017-11-30T02:51:03.066Z,92.23
2017-11-30T02:51:29.186Z,92.23
2017-11-30T02:51:55.303Z,92.04
2017-11-30T02:52:21.426Z,92.23
2017-11-30T02:52:47.541Z,92.04
2017-11-30T02:53:13.667Z,91.85
2017-11-30T02:53:39.782Z,91.66
2017-11-30T02:54:05.942Z,91.47
2017-11-30T02:54:32.064Z,91.57
2017-11-30T02:54:58.191Z,91.47
2017-11-30T02:55:24.300Z,91.47
2017-11-30T02:55:50.422Z,91.38
2017-11-30T02:56:16.542Z,91.47
2017-11-30T02:56:42.658Z,91.28
2017-11-30T02:57:08.778Z,91.47
2017-11-30T02:57:34.909Z,91.57
2017-11-30T02:58:01.038Z,91.47
2017-11-30T02:58:27.158Z,91.66
2017-11-30T02:58:53.294Z,91.57
2017-11-30T02:59:19.418Z,91.76
2017-11-30T02:59:45.529Z,92.04
2017-11-30T03:00:11.654Z,91.95
2017-11-30T03:00:37.772Z,92.14
2017-11-30T03:01:03.886Z,92.47
2017-11-30T03:01:30.011Z,92.33
2017-11-30T03:01:56.131Z,93.08
2017-11-30T03:02:22.267Z,92.66
2017-11-30T03:02:48.381Z,92.61
2017-11-30T03:03:14.505Z,93.04
2017-11-30T03:03:40.625Z,92.66
2017-11-30T03:04:06.747Z,93.32
2017-11-30T03:04:32.865Z,93.23
2017-11-30T03:04:58.998Z,93.13
2017-11-30T03:05:25.126Z,93.42
2017-11-30T03:05:51.240Z,93.32
2017-11-30T03:06:17.354Z,93.18
2017-11-30T03:06:43.503Z,93.23
2017-11-30T03:07:09.589Z,93.46
2017-11-30T03:07:35.761Z,93.27
2017-11-30T03:08:01.877Z,93.46
2017-11-30T03:08:27.998Z,93.18
2017-11-30T03:08:54.113Z,93.32
2017-11-30T03:09:20.239Z,93.13
2017-11-30T03:09:46.382Z,93.32
2017-11-30T03:10:12.497Z,93.23
2017-11-30T03:10:38.612Z,93.13
2017-11-30T03:11:04.750Z,93.32
2017-11-30T03:11:30.896Z,93.51
2017-11-30T03:11:57.044Z,93.99
2017-11-30T03:12:23.160Z,93.99
2017-11-30T03:12:49.284Z,93.99
2017-11-30T03:13:15.397Z,93.99
2017-11-30T03:13:41.520Z,94.27
2017-11-30T03:14:07.635Z,93.99
2017-11-30T03:14:33.761Z,93.99
2017-11-30T03:14:59.875Z,93.99
2017-11-30T03:15:26.009Z,94.08
2017-11-30T03:15:52.143Z,93.99
2017-11-30T03:16:18.260Z,94.18
2017-11-30T03:16:44.382Z,93.89
2017-11-30T03:17:10.500Z,93.89
2017-11-30T03:17:36.620Z,93.7
2017-11-30T03:18:02.733Z,93.7
2017-11-30T03:18:28.855Z,93.7
2017-11-30T03:18:54.978Z,93.89
2017-11-30T03:19:21.105Z,94.56
2017-11-30T03:19:47.216Z,94.56
2017-11-30T03:20:13.335Z,94.65
2017-11-30T03:20:39.457Z,94.46
2017-11-30T03:21:05.578Z,94.46
2017-11-30T03:21:31.693Z,94.18
2017-11-30T03:21:57.812Z,94.46
2017-11-30T03:22:23.936Z,93.89
2017-11-30T03:22:50.055Z,93.7
2017-11-30T03:23:16.209Z,94.18
2017-11-30T03:23:42.297Z,94.08
2017-11-30T03:24:08.413Z,93.89
2017-11-30T03:24:34.537Z,94.27
2017-11-30T03:25:00.652Z,94.27
2017-11-30T03:25:26.812Z,93.99
2017-11-30T03:25:52.935Z,94.27
2017-11-30T03:26:19.092Z,94.18
2017-11-30T03:26:45.246Z,93.99
2017-11-30T03:27:11.367Z,94.18
2017-11-30T03:27:37.480Z,93.89
2017-11-30T03:28:03.602Z,93.7
2017-11-30T03:28:29.728Z,93.89
2017-11-30T03:28:55.850Z,93.89
2017-11-30T03:29:21.968Z,93.7
2017-11-30T03:29:48.106Z,93.99
2017-11-30T03:30:14.224Z,94.46
2017-11-30T03:30:40.344Z,94.93
2017-11-30T03:31:06.454Z,95.12
2017-11-30T03:31:32.594Z,95.41
2017-11-30T03:31:58.710Z,95.31
2017-11-30T03:32:24.829Z,95.98
2017-11-30T03:32:50.947Z,95.5
2017-11-30T03:33:17.070Z,95.88
2017-11-30T03:33:43.214Z,96.17
2017-11-30T03:34:09.342Z,96.17
2017-11-30T03:34:35.481Z,96.07
2017-11-30T03:35:01.592Z,96.36
2017-11-30T03:35:27.715Z,96.17
2017-11-30T03:35:53.839Z,95.98
2017-11-30T03:36:19.960Z,96.17
2017-11-30T03:36:46.078Z,95.79
2017-11-30T03:37:12.214Z,95.88
2017-11-30T03:37:38.338Z,96.26
2017-11-30T03:38:04.453Z,95.69
2017-11-30T03:38:30.578Z,95.5
2017-11-30T03:38:56.701Z,95.79
2017-11-30T03:39:22.813Z,95.41
2017-11-30T03:39:48.938Z,95.22
2017-11-30T03:40:15.088Z,95.31
2017-11-30T03:40:41.215Z,95.31
2017-11-30T03:41:07.366Z,95.41
2017-11-30T03:41:33.489Z,95.5
2017-11-30T03:41:59.617Z,95.5
2017-11-30T03:42:25.743Z,95.31
2017-11-30T03:42:51.871Z,95.5
2017-11-30T03:43:18.025Z,95.5
2017-11-30T03:43:44.152Z,95.12
2017-11-30T03:44:10.279Z,95.41
2017-11-30T03:44:36.405Z,95.69
2017-11-30T03:45:02.533Z,95.69
2017-11-30T03:45:28.659Z,95.5
2017-11-30T03:45:54.786Z,95.31
2017-11-30T03:46:20.936Z,96.17
2017-11-30T03:46:47.063Z,95.88
2017-11-30T03:47:13.190Z,96.45
2017-11-30T03:47:39.317Z,97.02
2017-11-30T03:48:05.444Z,96.92
2017-11-30T03:48:31.570Z,97.68
2017-11-30T03:48:57.719Z,97.02
2017-11-30T03:49:23.874Z,97.78
2017-11-30T03:49:49.997Z,97.78
2017-11-30T03:50:16.147Z,97.78
2017-11-30T03:50:42.275Z,97.68
2017-11-30T03:51:08.401Z,97.68
2017-11-30T03:51:34.528Z,97.4
2017-11-30T03:52:00.678Z,97.59
2017-11-30T03:52:26.842Z,97.4
2017-11-30T03:52:52.936Z,97.68
2017-11-30T03:53:19.059Z,97.68
2017-11-30T03:53:45.185Z,97.21
2017-11-30T03:54:11.315Z,97.02
2017-11-30T03:54:37.460Z,96.73
2017-11-30T03:55:03.589Z,96.92
2017-11-30T03:55:29.715Z,96.92
2017-11-30T03:55:55.841Z,96.92
2017-11-30T03:56:21.970Z,97.11
2017-11-30T03:56:48.094Z,96.64
2017-11-30T03:57:14.220Z,96.73
2017-11-30T03:57:40.354Z,96.73
2017-11-30T03:58:06.474Z,96.83
2017-11-30T03:58:32.601Z,96.64
2017-11-30T03:58:58.728Z,96.26
2017-11-30T03:59:24.857Z,96.45
2017-11-30T03:59:51.026Z,96.07
2017-11-30T04:00:17.135Z,97.02
2017-11-30T04:00:43.264Z,96.92
2017-11-30T04:01:09.390Z,96.73
2017-11-30T04:01:35.519Z,96.64
2017-11-30T04:02:01.673Z,96.92
2017-11-30T04:02:27.794Z,97.21
2017-11-30T04:02:53.921Z,97.11
2017-11-30T04:03:20.071Z,97.21
2017-11-30T04:03:46.197Z,97.3
2017-11-30T04:04:12.324Z,97.11
2017-11-30T04:04:38.451Z,97.02
2017-11-30T04:05:04.579Z,97.3
2017-11-30T04:05:30.708Z,96.55
2017-11-30T04:05:56.880Z,96.92
2017-11-30T04:06:23.005Z,96.83
2017-11-30T04:06:49.133Z,96.83
2017-11-30T04:07:15.258Z,97.02
2017-11-30T04:07:41.381Z,97.21
2017-11-30T04:08:07.508Z,97.68
2017-11-30T04:08:33.629Z,97.68
2017-11-30T04:08:59.752Z,97.21
2017-11-30T04:09:25.869Z,97.4
2017-11-30T04:09:52.005Z,96.73
2017-11-30T04:10:18.132Z,96.73
2017-11-30T04:10:44.242Z,96.73
2017-11-30T04:11:10.369Z,96.64
2017-11-30T04:11:36.486Z,96.92
2017-11-30T04:12:02.611Z,96.26
2017-11-30T04:12:28.729Z,95.88
2017-11-30T04:12:54.843Z,96.36
2017-11-30T04:13:20.960Z,96.26
2017-11-30T04:13:47.082Z,95.6
2017-11-30T04:14:13.194Z,96.26
2017-11-30T04:14:39.336Z,96.17
2017-11-30T04:15:05.461Z,96.26
2017-11-30T04:15:31.574Z,96.26
2017-11-30T04:15:57.700Z,96.07
2017-11-30T04:16:23.815Z,96.64
2017-11-30T04:16:49.963Z,97.21
2017-11-30T04:17:16.078Z,97.4
2017-11-30T04:17:42.191Z,97.59
2017-11-30T04:18:08.327Z,97.68
2017-11-30T04:18:34.438Z,97.78
2017-11-30T04:19:00.556Z,97.68
2017-11-30T04:19:26.674Z,97.59
2017-11-30T04:19:52.796Z,97.68
2017-11-30T04:20:18.916Z,97.59
2017-11-30T04:20:45.071Z,97.78
2017-11-30T04:21:11.199Z,97.78
2017-11-30T04:21:37.318Z,97.78
2017-11-30T04:22:03.442Z,97.78
2017-11-30T04:22:29.554Z,97.78
2017-11-30T04:22:55.672Z,97.78
2017-11-30T04:23:21.795Z,97.21
2017-11-30T04:23:47.912Z,97.3
2017-11-30T04:24:14.038Z,97.21
2017-11-30T04:24:40.155Z,97.68
2017-11-30T04:25:06.295Z,97.59
2017-11-30T04:25:32.415Z,97.68
2017-11-30T04:25:58.543Z,97.3
2017-11-30T04:26:24.666Z,97.49
2017-11-30T04:26:50.808Z,97.02
2017-11-30T04:27:16.918Z,96.92
2017-11-30T04:27:43.035Z,97.02
2017-11-30T04:28:09.160Z,97.4
2017-11-30T04:28:35.281Z,96.64
2017-11-30T04:29:01.398Z,97.3
2017-11-30T04:29:27.522Z,97.21
2017-11-30T04:29:53.641Z,97.21
2017-11-30T04:30:19.761Z,96.92
2017-11-30T04:30:45.880Z,97.4
2017-11-30T04:31:12.011Z,97.11
2017-11-30T04:31:38.143Z,96.83
2017-11-30T04:32:04.256Z,96.64
2017-11-30T04:32:30.383Z,96.55
2017-11-30T04:32:56.495Z,96.73
2017-11-30T04:33:22.613Z,96.73
2017-11-30T04:33:48.736Z,97.02
2017-11-30T04:34:14.856Z,97.21
2017-11-30T04:34:40.974Z,97.21
2017-11-30T04:35:07.108Z,97.68
2017-11-30T04:35:33.235Z,97.68
2017-11-30T04:35:59.359Z,97.49
2017-11-30T04:36:25.473Z,97.21
2017-11-30T04:36:51.589Z,97.4
2017-11-30T04:37:17.735Z,97.11
2017-11-30T04:37:43.849Z,97.02
2017-11-30T04:38:09.971Z,97.11
2017-11-30T04:38:36.087Z,97.02
2017-11-30T04:39:02.211Z,97.02
2017-11-30T04:39:28.331Z,96.83
2017-11-30T04:39:54.447Z,96.55
2017-11-30T04:40:20.572Z,96.64
2017-11-30T04:40:46.687Z,96.26
2017-11-30T04:41:12.816Z,96.26
2017-11-30T04:41:38.952Z,96.36
2017-11-30T04:42:05.093Z,96.73
2017-11-30T04:42:31.189Z,96.83
2017-11-30T04:42:57.307Z,96.64
2017-11-30T04:43:23.449Z,96.92
2017-11-30T04:43:49.566Z,96.73
2017-11-30T04:44:15.696Z,96.73
2017-11-30T04:44:41.804Z,97.02
2017-11-30T04:45:07.924Z,96.45
2017-11-30T04:45:34.068Z,96.45
2017-11-30T04:46:00.173Z,96.17
2017-11-30T04:46:26.320Z,96.26
2017-11-30T04:46:52.477Z,95.98
2017-11-30T04:47:18.591Z,96.64
2017-11-30T04:47:44.730Z,96.55
2017-11-30T04:48:10.868Z,96.83
2017-11-30T04:48:37.018Z,96.92
2017-11-30T04:49:03.138Z,96.73
2017-11-30T04:49:29.259Z,96.73
2017-11-30T04:49:55.378Z,96.83
2017-11-30T04:50:21.526Z,97.02
2017-11-30T04:50:47.651Z,96.45
2017-11-30T04:51:13.764Z,96.26
2017-11-30T04:51:39.874Z,96.36
2017-11-30T04:52:05.997Z,96.36
2017-11-30T04:52:32.120Z,96.83
2017-11-30T04:52:58.239Z,96.26
2017-11-30T04:53:24.358Z,96.07
2017-11-30T04:53:50.506Z,96.26
2017-11-30T04:54:16.599Z,95.88
2017-11-30T04:54:42.718Z,96.17
2017-11-30T04:55:08.841Z,96.07
2017-11-30T04:55:34.953Z,96.45
2017-11-30T04:56:01.073Z,96.26
2017-11-30T04:56:27.191Z,96.45
2017-11-30T04:56:53.309Z,95.88
2017-11-30T04:57:19.432Z,95.88
2017-11-30T04:57:45.547Z,96.07
2017-11-30T04:58:11.670Z,95.88
2017-11-30T04:58:37.785Z,96.17
2017-11-30T04:59:03.926Z,96.07
2017-11-30T04:59:30.050Z,96.07
2017-11-30T04:59:56.168Z,95.88
2017-11-30T05:00:22.294Z,96.07
2017-11-30T05:00:48.428Z,96.07
2017-11-30T05:01:14.556Z,96.17
2017-11-30T05:01:40.670Z,96.73
2017-11-30T05:02:06.789Z,96.83
2017-11-30T05:02:32.934Z,96.64
2017-11-30T05:02:59.048Z,97.02
2017-11-30T05:03:25.173Z,96.92
2017-11-30T05:03:51.294Z,96.92
2017-11-30T05:04:17.407Z,96.83
2017-11-30T05:04:43.528Z,97.02
2017-11-30T05:05:09.656Z,97.59
2017-11-30T05:05:35.759Z,97.59
2017-11-30T05:06:01.880Z,97.4
2017-11-30T05:06:28.013Z,97.11
2017-11-30T05:06:54.149Z,97.3
2017-11-30T05:07:20.262Z,97.68
2017-11-30T05:07:46.406Z,97.11
2017-11-30T05:08:12.524Z,97.02
2017-11-30T05:08:38.642Z,97.21
2017-11-30T05:09:04.766Z,97.21
2017-11-30T05:09:30.892Z,97.21
2017-11-30T05:09:56.999Z,97.68
2017-11-30T05:10:23.118Z,96.92
2017-11-30T05:10:49.243Z,97.11
2017-11-30T05:11:15.357Z,97.11
2017-11-30T05:11:41.475Z,97.21
2017-11-30T05:12:07.590Z,97.11
2017-11-30T05:12:33.704Z,97.21
2017-11-30T05:12:59.825Z,96.83
2017-11-30T05:13:25.940Z,97.11
2017-11-30T05:13:52.064Z,97.68
2017-11-30T05:14:18.186Z,97.4
2017-11-30T05:14:44.301Z,97.11
2017-11-30T05:15:10.424Z,97.59
2017-11-30T05:15:36.542Z,97.68
2017-11-30T05:16:02.677Z,97.4
2017-11-30T05:16:28.803Z,97.68
2017-11-30T05:16:54.917Z,97.4
2017-11-30T05:17:21.039Z,97.02
2017-11-30T05:17:47.161Z,96.73
2017-11-30T05:18:13.296Z,96.83
2017-11-30T05:18:39.422Z,96.92
2017-11-30T05:19:05.563Z,96.92
2017-11-30T05:19:31.675Z,96.92
2017-11-30T05:19:57.796Z,97.11
2017-11-30T05:20:23.911Z,97.02
2017-11-30T05:20:50.056Z,96.92
2017-11-30T05:21:16.173Z,97.68
2017-11-30T05:21:42.296Z,97.78
2017-11-30T05:22:08.410Z,98.06
2017-11-30T05:22:34.533Z,98.25
2017-11-30T05:23:00.649Z,98.16
2017-11-30T05:23:26.772Z,98.06
2017-11-30T05:23:52.886Z,98.35
2017-11-30T05:24:19.030Z,98.25
2017-11-30T05:24:45.154Z,97.97
2017-11-30T05:25:11.291Z,97.97
2017-11-30T05:25:37.431Z,97.78
2017-11-30T05:26:03.557Z,98.35
2017-11-30T05:26:29.682Z,97.78
2017-11-30T05:26:55.797Z,97.87
2017-11-30T05:27:21.943Z,97.11
2017-11-30T05:27:48.057Z,97.21
2017-11-30T05:28:14.187Z,97.49
2017-11-30T05:28:40.295Z,97.78
2017-11-30T05:29:06.413Z,97.59
2017-11-30T05:29:32.531Z,97.59
2017-11-30T05:29:58.650Z,97.59
2017-11-30T05:30:24.771Z,97.49
2017-11-30T05:30:50.886Z,97.68
2017-11-30T05:31:17.005Z,97.4
2017-11-30T05:31:43.130Z,97.02
2017-11-30T05:32:09.247Z,97.35
2017-11-30T05:32:35.370Z,96.92
2017-11-30T05:33:01.495Z,96.92
2017-11-30T05:33:27.606Z,96.45
2017-11-30T05:33:53.726Z,96.41
2017-11-30T05:34:19.839Z,96.73
2017-11-30T05:34:45.983Z,96.88
2017-11-30T05:35:12.105Z,96.5
2017-11-30T05:35:38.222Z,96.12
2017-11-30T05:36:04.359Z,96.5
2017-11-30T05:36:30.479Z,96.03
2017-11-30T05:36:56.603Z,96.41
2017-11-30T05:37:22.725Z,96.22
2017-11-30T05:37:48.867Z,95.93